Terminal Aerodrome Forecast
Issued by NWS

Home | Current Version | Previous Version | Text Only | Print | Product List | Glossary On
Versions: 1 2 3 4 5 6 7 8 9 10 11 12
850
FTUS45 KPSR 021720
TAFIPL
TAF
KIPL 021720Z 0218/0318 36015G25KT P6SM SCT110
     FM030000 33008KT P6SM FEW100
     FM030500 31010G18KT P6SM FEW250
     FM031100 31012G24KT P6SM FEW250=

USA.gov is the U.S. government's official web portal to all federal, state and local government web resources and services.